• Join FlightAware (Why Join?)
  • Login
  • US Flag 
11:27AM EDT


 

Airport Tracker/Info


-or-


 

Live Flight TrackerFlight Track Log ✈ N53398 ✈ 07-Jun-2013 ✈ H88 - KCPS

Flight Track Log - Related Links

Times and Time Zones

All times are in EDT time to prevent confusion due to time zone crossing. See the N53398 flight status page for this flight to view local times or setup timezone preferences in your user account.

Time Position Orientation Groundspeed Altitude Reporting Facility
EDT Latitude Longitude Course Direction KTS MPH feet Rate Location/Type
04:03PM 37.8786 -90.2728 345° North 87 100 2,900  Level Kansas City Center
04:04PM 37.9036 -90.2717 North 75 86 3,300 360 Climbing Kansas City Center
04:05PM 37.9233 -90.2667 11° North 73 84 3,700 300 Climbing Kansas City Center
04:06PM 37.9403 -90.2625 11° North 63 72 4,000 300 Climbing Kansas City Center
04:07PM 37.7297 -90.2333 North  Level FlightAware Approximate
04:07PM 37.9578 -90.2561 16° North 65 75 4,400  Level Kansas City Center
04:08PM 37.7525 -90.2397 345° North  Level FlightAware Approximate
04:08PM 37.9775 -90.2486 17° North 74 85 4,700  Level Kansas City Center
04:09PM 38.0011 -90.2456 North 86 99 4,800  Climbing Kansas City Center
04:10PM 38.0300 -90.2389 10° North 88 101 4,800  Level Kansas City Center
04:11PM 38.0536 -90.2319 13° North 88 101 4,800  Level Kansas City Center
04:12PM 38.0769 -90.2233 16° North 88 101 4,800  Level Kansas City Center
04:13PM 38.1011 -90.2167 12° North 89 102 4,800  Level Kansas City Center
04:14PM 38.1256 -90.2161 North 89 102 4,800  Level Kansas City Center
04:15PM 38.1511 -90.2142 North 90 104 4,900  Climbing Kansas City Center
04:16PM 38.1806 -90.2075 10° North 90 104 4,900  Level Kansas City Center
04:17PM 38.2044 -90.1994 15° North 89 102 4,900 -300 Level Kansas City Center
04:18PM 38.2169 -90.2094 328° Northwest 94 108 4,300 -120 Descending Kansas City Center
04:19PM 38.1983 -90.2233 210° Southwest 84 97 4,700 240 Climbing Kansas City Center
04:20PM 38.1764 -90.2294 192° South 82 94 4,900 60 Climbing Kansas City Center
04:21PM 38.1667 -90.2311 188° South 103 119 4,900 -120 Level Kansas City Center
04:22PM 38.1836 -90.2106 44° Northeast 90 104 4,700 -480 Descending Kansas City Center
04:23PM 38.2011 -90.1861 48° Northeast 93 107 4,000 -420 Descending Kansas City Center
04:24PM 38.2192 -90.1692 36° Northeast 89 102 3,900 -120 Descending Kansas City Center
04:25PM 38.2433 -90.1683 North 87 100 3,800 -60 Descending Kansas City Center
04:26PM 38.2658 -90.1625 12° North 85 98 3,800  Level Kansas City Center
04:27PM 38.2939 -90.1547 12° North 85 98 3,900 -60 Climbing Kansas City Center
04:28PM 38.3197 -90.1556 359° North 90 104 3,700 -360 Descending Kansas City Center
04:29PM 38.3447 -90.1575 357° North 90 104 3,200 -540 Descending Kansas City Center
04:30PM 38.3706 -90.1597 356° North 92 106 2,600 -540 Descending Kansas City Center
04:32PM 38.3942 -90.1561 North 89 102 2,200 -300 Descending Kansas City Center
04:33PM 38.4178 -90.1547 North 87 100 2,100 -60 Descending Kansas City Center
04:34PM 38.4469 -90.1556 359° North 87 100 2,100 -120 Level Kansas City Center
04:35PM 38.4689 -90.1433 24° Northeast 95 109 1,900 -180 Descending Kansas City Center
04:36PM 38.4897 -90.1250 35° Northeast 93 107 1,800 -240 Descending Kansas City Center
04:37PM 38.5128 -90.1117 24° Northeast 93 107 1,500 -300 Descending Kansas City Center
04:38PM 38.5361 -90.1122 359° North 89 102 1,200 -480 Descending Kansas City Center
04:39PM 38.5522 -90.1267 325° Northwest 74 85 600 -360 Descending Kansas City Center
04:40PM 38.5611 -90.1386 314° West 66 76 500 -120 Descending Kansas City Center